Airfield :
LOGIN :

Register | Disclaimer

   EN    FR    IT 

 










Legend :    VFR   Marginal VFR   IFR   Intensive IFR   Very Intensive IFR
Visi :
Ceiling :
>= 8 km
>= 3000ft
5 to 8 km
1000 to 3000 ft
1500m to 5 km
500 to 1000 ft
800 to 1500m
200 to 500 ft
< 800m
< 200 ft
Symbols :   Thunderstorms  Fog  Heavy snow  Heavy precipitations  Wind > 20 kt
SIGMETs :     Misc.  Thunderstorms  Icing  Turbulence  Mountain Waves  Volcanic Ashes







- Airport Elevation : 433 ft
- Download approach charts


LFOC - Chateaudun

CURRENT METAR :
  • 112330Z AUTO 12006KT 0900 0700 R28/1000D FG VV/// 02/02 Q1023

EXPIRED METARs :
  • 112300Z AUTO 11007KT 1100 0900 R28/1200D BCFG VV/// 02/02 Q1023
  • 112230Z AUTO 10008KT 2600 BR OVC002 02/02 Q1023
  • 112200Z AUTO 11006KT 5000 BR OVC003 03/03 Q1023
  • 112130Z AUTO 13004KT 5000 BR OVC002 03/03 Q1024
  • 112100Z AUTO 13003KT 090V150 4400 BR OVC003 03/03 Q1023

TAF TAF LFOC
Valid from the 11 at 15:00 until the 12 at 15:00 UTC


111400Z 1115/1215 16005KT 2000 BR OVC001
BECMG 1115/1116 6000 NSW BKN010 BKN045
PROB40
TEMPO 1119/1209 3000 BR BKN006
BECMG 1209/1211 SCT015
No reported NOTAMs for that airfield.



MET'MAP, your aeronautical weather chart ! - Copyright ORBIFLY December 2007 - Disclaimer

ORBIFLY MET'MAP TEAM :

Programming & Development : Alexandra Zaïnal
Concept & Development : Baudouin d'Aumeries
Co-Development & Prog : Marc-Olivier Méhu
Technical & hardware support : Manuel Goepfert

Contact : metmap@orbifly.com




SOURCES & CREDITS :

   NOAA